createdAt,value
2019-03-15T00:00:59.603Z,39.45
2019-03-15T00:01:59.570Z,39.42
2019-03-15T00:02:59.572Z,39.46
2019-03-15T00:03:59.549Z,39.45
2019-03-15T00:04:59.419Z,39.45
2019-03-15T00:05:59.517Z,39.45
2019-03-15T00:06:59.862Z,39.47
2019-03-15T00:07:59.384Z,39.48
2019-03-15T00:08:59.637Z,39.47
2019-03-15T00:09:59.618Z,39.48
2019-03-15T00:11:00.074Z,39.48
2019-03-15T00:12:00.087Z,39.45
2019-03-15T00:12:59.457Z,39.49
2019-03-15T00:13:59.546Z,39.51
2019-03-15T00:14:59.621Z,39.5
2019-03-15T00:15:59.374Z,39.49
2019-03-15T00:17:00.003Z,39.51
2019-03-15T00:17:59.546Z,39.48
2019-03-15T00:18:59.387Z,39.51
2019-03-15T00:19:59.569Z,39.53
2019-03-15T00:20:59.686Z,39.51
2019-03-15T00:21:59.403Z,39.51
2019-03-15T00:22:59.586Z,39.53
2019-03-15T00:23:59.718Z,39.56
2019-03-15T00:24:59.522Z,39.56
2019-03-15T00:25:59.573Z,39.56
2019-03-15T00:26:59.389Z,39.55
2019-03-15T00:27:59.464Z,39.52
2019-03-15T00:28:59.600Z,39.51
2019-03-15T00:29:59.440Z,39.55
2019-03-15T00:30:59.571Z,39.53
2019-03-15T00:31:59.589Z,39.54
2019-03-15T00:32:59.465Z,39.55
2019-03-15T00:33:59.606Z,39.55
2019-03-15T00:34:59.628Z,39.55
2019-03-15T00:35:59.482Z,39.54
2019-03-15T00:36:59.600Z,39.56
2019-03-15T00:37:59.335Z,39.57
2019-03-15T00:38:59.442Z,39.53
2019-03-15T00:39:59.551Z,39.51
2019-03-15T00:40:59.412Z,39.56
2019-03-15T00:41:59.556Z,39.57
2019-03-15T00:42:59.317Z,39.56
2019-03-15T00:43:59.420Z,39.58
2019-03-15T00:44:59.609Z,39.58
2019-03-15T00:45:59.385Z,39.55
2019-03-15T00:46:59.763Z,39.6
2019-03-15T00:47:59.647Z,39.6
2019-03-15T00:48:59.365Z,39.59
2019-03-15T00:49:59.484Z,39.54
2019-03-15T00:50:59.583Z,39.61
2019-03-15T00:51:59.494Z,39.54
2019-03-15T00:52:59.477Z,39.54
2019-03-15T00:53:59.766Z,39.57
2019-03-15T00:54:59.397Z,39.61
2019-03-15T00:55:59.502Z,39.61
2019-03-15T00:56:59.356Z,39.62
2019-03-15T00:57:59.472Z,39.6
2019-03-15T00:58:59.508Z,39.64
2019-03-15T00:59:59.612Z,39.63
2019-03-15T01:00:59.491Z,39.61
2019-03-15T01:01:59.564Z,39.64
2019-03-15T01:02:59.469Z,39.58
2019-03-15T01:03:59.471Z,39.66
2019-03-15T01:04:59.537Z,39.68
2019-03-15T01:05:59.363Z,39.64
2019-03-15T01:06:59.418Z,39.63
2019-03-15T01:07:59.553Z,39.64
2019-03-15T01:08:59.366Z,39.63
2019-03-15T01:09:59.572Z,39.64
2019-03-15T01:10:59.349Z,39.66
2019-03-15T01:11:59.511Z,39.64
2019-03-15T01:12:59.559Z,39.64
2019-03-15T01:13:59.614Z,39.59
2019-03-15T01:14:59.402Z,39.68
2019-03-15T01:16:00.138Z,39.64
2019-03-15T01:17:00.640Z,39.67
2019-03-15T01:17:59.438Z,39.64
2019-03-15T01:18:59.612Z,39.64
2019-03-15T01:19:59.423Z,39.68
2019-03-15T01:20:59.393Z,39.68
2019-03-15T01:21:59.773Z,39.63
2019-03-15T01:22:59.372Z,39.66
2019-03-15T01:23:59.681Z,39.6
2019-03-15T01:24:59.566Z,39.66
2019-03-15T01:25:59.542Z,39.72
2019-03-15T01:26:59.477Z,39.67
2019-03-15T01:27:59.376Z,39.66
2019-03-15T01:28:59.471Z,39.64
2019-03-15T01:29:59.524Z,39.64
2019-03-15T01:30:59.428Z,39.61
2019-03-15T01:31:59.484Z,39.63
2019-03-15T01:32:59.853Z,39.68
2019-03-15T01:33:59.804Z,39.63
2019-03-15T01:34:59.495Z,39.66
2019-03-15T01:35:59.771Z,39.67
2019-03-15T01:36:59.487Z,39.66
2019-03-15T01:37:59.977Z,39.7
2019-03-15T01:38:59.399Z,39.66
2019-03-15T01:39:59.515Z,39.68
2019-03-15T01:40:59.634Z,39.66
2019-03-15T01:41:59.393Z,39.68
2019-03-15T01:42:59.553Z,39.67
2019-03-15T01:43:59.639Z,39.68
2019-03-15T01:44:59.479Z,39.62
2019-03-15T01:45:59.460Z,39.72
2019-03-15T01:46:59.543Z,39.69
2019-03-15T01:47:59.386Z,39.71
2019-03-15T01:48:59.556Z,39.68
2019-03-15T01:49:59.575Z,39.7
2019-03-15T01:50:59.403Z,39.67
2019-03-15T01:51:59.442Z,39.67
2019-03-15T01:52:59.284Z,39.63
2019-03-15T01:53:59.464Z,39.64
2019-03-15T01:54:59.460Z,39.68
2019-03-15T01:55:59.317Z,39.67
2019-03-15T01:56:59.423Z,39.71
2019-03-15T01:57:59.497Z,39.66
2019-03-15T01:58:59.548Z,39.69
2019-03-15T01:59:59.518Z,39.69
2019-03-15T02:00:59.530Z,39.67
2019-03-15T02:01:59.336Z,39.67
2019-03-15T02:03:02.679Z,39.71
2019-03-15T02:03:59.681Z,39.7
2019-03-15T02:04:59.364Z,39.72
2019-03-15T02:05:59.510Z,39.72
2019-03-15T02:06:59.428Z,39.68
2019-03-15T02:08:00.899Z,39.7
2019-03-15T02:08:59.503Z,39.66
2019-03-15T02:09:59.351Z,39.73
2019-03-15T02:10:59.470Z,39.68
2019-03-15T02:11:59.860Z,39.68
2019-03-15T02:12:59.408Z,39.68
2019-03-15T02:13:59.452Z,39.7
2019-03-15T02:14:59.340Z,39.71
2019-03-15T02:15:59.426Z,39.67
2019-03-15T02:17:00.680Z,39.72
2019-03-15T02:17:59.346Z,39.73
2019-03-15T02:18:59.445Z,39.74
2019-03-15T02:19:59.469Z,39.73
2019-03-15T02:20:59.771Z,39.74
2019-03-15T02:21:59.551Z,39.73
2019-03-15T02:22:59.641Z,39.75
2019-03-15T02:23:59.460Z,39.73
2019-03-15T02:24:59.571Z,39.71
2019-03-15T02:25:59.440Z,39.73
2019-03-15T02:26:59.508Z,39.73
2019-03-15T02:27:59.545Z,39.76
2019-03-15T02:28:59.380Z,39.77
2019-03-15T02:29:59.419Z,39.75
2019-03-15T02:31:00.285Z,39.75
2019-03-15T02:31:59.464Z,39.72
2019-03-15T02:32:59.536Z,39.73
2019-03-15T02:34:00.511Z,39.74
2019-03-15T02:34:59.444Z,39.75
2019-03-15T02:35:59.551Z,39.76
2019-03-15T02:36:59.397Z,39.73
2019-03-15T02:38:00.395Z,39.71
2019-03-15T02:38:59.552Z,39.76
2019-03-15T02:39:59.596Z,39.75
2019-03-15T02:40:59.435Z,39.78
2019-03-15T02:41:59.568Z,39.77
2019-03-15T02:42:59.340Z,39.75
2019-03-15T02:43:59.450Z,39.77
2019-03-15T02:44:59.617Z,39.76
2019-03-15T02:45:59.459Z,39.75
2019-03-15T02:46:59.518Z,39.76
2019-03-15T02:47:59.637Z,39.76
2019-03-15T02:48:59.358Z,39.75
2019-03-15T02:50:02.117Z,39.75
2019-03-15T02:50:59.335Z,39.76
2019-03-15T02:51:59.354Z,39.74
2019-03-15T02:52:59.656Z,39.76
2019-03-15T02:54:00.970Z,39.8
2019-03-15T02:54:59.366Z,39.76
2019-03-15T02:55:59.763Z,39.77
2019-03-15T02:56:59.345Z,39.77
2019-03-15T02:57:59.431Z,39.77
2019-03-15T02:58:59.543Z,39.77
2019-03-15T02:59:59.439Z,39.81
2019-03-15T03:00:59.462Z,39.82
2019-03-15T03:02:00.917Z,39.77
2019-03-15T03:02:59.689Z,39.78
2019-03-15T03:03:59.480Z,39.8
2019-03-15T03:04:59.421Z,39.81
2019-03-15T03:06:01.587Z,39.81
2019-03-15T03:06:59.472Z,39.79
2019-03-15T03:07:59.304Z,39.78
2019-03-15T03:08:59.443Z,39.79
2019-03-15T03:09:59.515Z,39.8
2019-03-15T03:10:59.516Z,39.81
2019-03-15T03:11:59.490Z,39.79
2019-03-15T03:12:59.286Z,39.78
2019-03-15T03:13:59.682Z,39.77
2019-03-15T03:14:59.470Z,39.79
2019-03-15T03:15:59.349Z,39.81
2019-03-15T03:16:59.426Z,39.81
2019-03-15T03:17:59.564Z,39.8
2019-03-15T03:19:01.318Z,39.77
2019-03-15T03:19:59.437Z,39.82
2019-03-15T03:20:59.559Z,39.8
2019-03-15T03:21:59.389Z,39.81
2019-03-15T03:22:59.440Z,39.81
2019-03-15T03:23:59.259Z,39.84
2019-03-15T03:24:59.350Z,39.84
2019-03-15T03:25:59.924Z,39.84
2019-03-15T03:26:59.388Z,39.81
2019-03-15T03:28:01.328Z,39.84
2019-03-15T03:28:59.935Z,39.85
2019-03-15T03:29:59.498Z,39.79
2019-03-15T03:30:59.451Z,39.85
2019-03-15T03:31:59.683Z,39.84
2019-03-15T03:32:59.587Z,39.83
2019-03-15T03:33:59.530Z,39.81
2019-03-15T03:34:59.407Z,39.79
2019-03-15T03:36:01.219Z,39.84
2019-03-15T03:36:59.514Z,39.83
2019-03-15T03:37:59.360Z,39.83
2019-03-15T03:38:59.498Z,39.82
2019-03-15T03:40:02.497Z,39.82
2019-03-15T03:41:02.115Z,39.84
2019-03-15T03:41:59.409Z,39.84
2019-03-15T03:42:59.550Z,39.85
2019-03-15T03:43:59.336Z,39.84
2019-03-15T03:44:59.516Z,39.85
2019-03-15T03:45:59.534Z,39.82
2019-03-15T03:46:59.453Z,39.85
2019-03-15T03:47:59.411Z,39.86
2019-03-15T03:48:59.369Z,39.83
2019-03-15T03:49:59.442Z,39.83
2019-03-15T03:51:00.513Z,39.86
2019-03-15T03:51:59.433Z,39.89
2019-03-15T03:52:59.437Z,39.87
2019-03-15T03:53:59.475Z,39.86
2019-03-15T03:54:59.383Z,39.87
2019-03-15T03:55:59.428Z,39.85
2019-03-15T03:56:59.501Z,39.84
2019-03-15T03:57:59.426Z,39.89
2019-03-15T03:58:59.451Z,39.87
2019-03-15T03:59:59.780Z,39.86
2019-03-15T04:00:59.306Z,39.94
2019-03-15T04:01:59.491Z,39.86
2019-03-15T04:02:59.314Z,39.86
2019-03-15T04:03:59.303Z,39.86
2019-03-15T04:04:59.432Z,39.83
2019-03-15T04:05:59.275Z,39.87
2019-03-15T04:06:59.487Z,39.86
2019-03-15T04:07:59.598Z,39.9
2019-03-15T04:08:59.638Z,39.87
2019-03-15T04:09:59.392Z,39.85
2019-03-15T04:10:59.562Z,39.87
2019-03-15T04:11:59.327Z,39.89
2019-03-15T04:12:59.494Z,39.91
2019-03-15T04:13:59.347Z,39.91
2019-03-15T04:14:59.374Z,39.87
2019-03-15T04:15:59.527Z,39.87
2019-03-15T04:16:59.265Z,39.88
2019-03-15T04:17:59.714Z,39.86
2019-03-15T04:18:59.472Z,39.86
2019-03-15T04:19:59.317Z,39.89
2019-03-15T04:20:59.529Z,39.85
2019-03-15T04:21:59.835Z,39.87
2019-03-15T04:22:59.359Z,39.87
2019-03-15T04:23:59.423Z,39.89
2019-03-15T04:24:59.208Z,39.88
2019-03-15T04:25:59.368Z,39.89
2019-03-15T04:26:59.482Z,39.86
2019-03-15T04:27:59.287Z,39.88
2019-03-15T04:28:59.304Z,39.9
2019-03-15T04:29:59.515Z,39.89
2019-03-15T04:30:59.295Z,39.9
2019-03-15T04:31:59.315Z,39.96
2019-03-15T04:32:59.582Z,39.9
2019-03-15T04:33:59.300Z,39.92
2019-03-15T04:34:59.489Z,39.96
2019-03-15T04:36:00.029Z,39.92
2019-03-15T04:36:59.373Z,39.95
2019-03-15T04:37:59.381Z,39.89
2019-03-15T04:38:59.241Z,39.87
2019-03-15T04:39:59.415Z,39.86
2019-03-15T04:40:59.443Z,39.81
2019-03-15T04:41:59.262Z,39.86
2019-03-15T04:42:59.424Z,39.89
2019-03-15T04:43:59.487Z,39.87
2019-03-15T04:44:59.347Z,39.86
2019-03-15T04:45:59.494Z,39.85
2019-03-15T04:46:59.440Z,39.88
2019-03-15T04:47:59.344Z,39.83
2019-03-15T04:48:59.444Z,39.83
2019-03-15T04:49:59.360Z,39.82
2019-03-15T04:50:59.336Z,39.79
2019-03-15T04:51:59.434Z,39.8
2019-03-15T04:52:59.328Z,39.78
2019-03-15T04:53:59.463Z,39.78
2019-03-15T04:54:59.496Z,39.78
2019-03-15T04:55:59.342Z,39.79
2019-03-15T04:56:59.442Z,39.77
2019-03-15T04:57:59.587Z,39.79
2019-03-15T04:58:59.389Z,39.79
2019-03-15T04:59:59.436Z,39.79
2019-03-15T05:00:59.218Z,39.77
2019-03-15T05:01:59.456Z,39.75
2019-03-15T05:02:59.394Z,39.73
2019-03-15T05:03:59.268Z,39.72
2019-03-15T05:05:01.118Z,39.73
2019-03-15T05:06:04.131Z,39.7
2019-03-15T05:06:59.337Z,39.73
2019-03-15T05:07:59.443Z,39.71
2019-03-15T05:08:59.284Z,39.65
2019-03-15T05:09:59.346Z,39.68
2019-03-15T05:10:59.555Z,39.67
2019-03-15T05:11:59.304Z,39.69
2019-03-15T05:12:59.307Z,39.63
2019-03-15T05:13:59.538Z,39.64
2019-03-15T05:14:59.263Z,39.69
2019-03-15T05:15:59.453Z,39.72
2019-03-15T05:16:59.462Z,39.7
2019-03-15T05:17:59.290Z,39.65
2019-03-15T05:18:59.507Z,39.66
2019-03-15T05:19:59.532Z,39.66
2019-03-15T05:20:59.320Z,39.68
2019-03-15T05:21:59.360Z,39.66
2019-03-15T05:22:59.531Z,39.71
2019-03-15T05:23:59.329Z,39.66
2019-03-15T05:24:59.684Z,39.66
2019-03-15T05:25:59.254Z,39.72
2019-03-15T05:26:59.678Z,39.64
2019-03-15T05:27:59.392Z,39.65
2019-03-15T05:28:59.218Z,39.67
2019-03-15T05:29:59.375Z,39.73
2019-03-15T05:30:59.543Z,39.7
2019-03-15T05:31:59.369Z,39.72
2019-03-15T05:32:59.402Z,39.74
2019-03-15T05:33:59.540Z,39.73
2019-03-15T05:34:59.407Z,39.67
2019-03-15T05:35:59.426Z,39.69
2019-03-15T05:36:59.472Z,39.68
2019-03-15T05:37:59.297Z,39.71
2019-03-15T05:38:59.425Z,39.75
2019-03-15T05:39:59.260Z,39.77
2019-03-15T05:40:59.642Z,39.77
2019-03-15T05:41:59.517Z,39.77
2019-03-15T05:42:59.308Z,39.75
2019-03-15T05:43:59.360Z,39.69
2019-03-15T05:44:59.453Z,39.71
2019-03-15T05:45:59.384Z,39.67
2019-03-15T05:46:59.375Z,39.75
2019-03-15T05:47:59.407Z,39.7
2019-03-15T05:48:59.277Z,39.71
2019-03-15T05:49:59.378Z,39.72
2019-03-15T05:50:59.327Z,39.71
2019-03-15T05:51:59.386Z,39.74
2019-03-15T05:52:59.491Z,39.72
2019-03-15T05:53:59.269Z,39.71
2019-03-15T05:54:59.327Z,39.71
2019-03-15T05:55:59.773Z,39.73
2019-03-15T05:56:59.225Z,39.65
2019-03-15T05:57:59.363Z,39.68
2019-03-15T05:58:59.554Z,39.7
2019-03-15T05:59:59.241Z,39.66
2019-03-15T06:00:59.419Z,39.7
2019-03-15T06:01:59.441Z,39.83
2019-03-15T06:02:59.386Z,39.99
2019-03-15T06:03:59.407Z,40.33
2019-03-15T06:04:59.229Z,40.45
2019-03-15T06:05:59.425Z,40.67
2019-03-15T06:06:59.435Z,40.9
2019-03-15T06:07:59.267Z,40.75
2019-03-15T06:08:59.311Z,40.61
2019-03-15T06:09:59.445Z,40.52
2019-03-15T06:10:59.391Z,40.55
2019-03-15T06:11:59.442Z,40.92
2019-03-15T06:12:59.612Z,40.99
2019-03-15T06:13:59.338Z,41.14
2019-03-15T06:14:59.356Z,41.22
2019-03-15T06:15:59.212Z,41.01
2019-03-15T06:16:59.383Z,40.95
2019-03-15T06:17:59.495Z,40.8
2019-03-15T06:18:59.237Z,40.66
2019-03-15T06:19:59.475Z,40.67
2019-03-15T06:20:59.474Z,40.58
2019-03-15T06:21:59.382Z,40.49
2019-03-15T06:22:59.518Z,40.33
2019-03-15T06:23:59.544Z,40.42
2019-03-15T06:24:59.459Z,40.33
2019-03-15T06:25:59.544Z,40.25
2019-03-15T06:26:59.364Z,40.18
2019-03-15T06:27:59.361Z,40.15
2019-03-15T06:29:01.928Z,40.13
2019-03-15T06:29:59.294Z,40.16
2019-03-15T06:30:59.529Z,40.2
2019-03-15T06:31:59.490Z,40.1
2019-03-15T06:32:59.501Z,40.09
2019-03-15T06:33:59.475Z,40.08
2019-03-15T06:34:59.287Z,40.05
2019-03-15T06:35:59.309Z,40.05
2019-03-15T06:36:59.387Z,40.05
2019-03-15T06:37:59.256Z,39.99
2019-03-15T06:38:59.432Z,40
2019-03-15T06:39:59.564Z,39.92
2019-03-15T06:41:00.554Z,39.98
2019-03-15T06:41:59.456Z,39.95
2019-03-15T06:42:59.372Z,39.92
2019-03-15T06:43:59.408Z,39.92
2019-03-15T06:44:59.487Z,39.9
2019-03-15T06:45:59.282Z,39.86
2019-03-15T06:46:59.474Z,39.94
2019-03-15T06:48:01.193Z,39.84
2019-03-15T06:48:59.368Z,39.85
2019-03-15T06:49:59.443Z,39.89
2019-03-15T06:50:59.474Z,39.9
2019-03-15T06:51:59.314Z,39.89
2019-03-15T06:52:59.335Z,39.88
2019-03-15T06:54:11.936Z,39.9
2019-03-15T06:55:00.287Z,39.87
2019-03-15T06:55:59.323Z,39.87
2019-03-15T06:56:59.455Z,39.83
2019-03-15T06:57:59.532Z,39.85
2019-03-15T06:58:59.517Z,39.89
2019-03-15T06:59:59.848Z,39.86
2019-03-15T07:00:59.373Z,39.86
2019-03-15T07:01:59.478Z,39.86
2019-03-15T07:02:59.198Z,39.8
2019-03-15T07:03:59.335Z,39.86
2019-03-15T07:04:59.821Z,39.87
2019-03-15T07:05:59.348Z,39.84
2019-03-15T07:06:59.420Z,39.85
2019-03-15T07:07:59.421Z,39.83
2019-03-15T07:08:59.340Z,39.83
2019-03-15T07:09:59.380Z,39.83
2019-03-15T07:10:59.242Z,39.81
2019-03-15T07:12:10.028Z,39.79
2019-03-15T07:12:59.409Z,39.82
2019-03-15T07:13:59.372Z,39.81
2019-03-15T07:14:59.376Z,39.8
2019-03-15T07:15:59.711Z,39.82
2019-03-15T07:16:59.389Z,39.79
2019-03-15T07:17:59.491Z,39.8
2019-03-15T07:18:59.481Z,39.79
2019-03-15T07:19:59.510Z,39.8
2019-03-15T07:20:59.389Z,39.74
2019-03-15T07:21:59.692Z,39.81
2019-03-15T07:22:59.485Z,39.74
2019-03-15T07:23:59.509Z,39.82
2019-03-15T07:24:59.402Z,39.83
2019-03-15T07:25:59.412Z,39.84
2019-03-15T07:27:13.483Z,39.83
2019-03-15T07:27:59.192Z,39.73
2019-03-15T07:28:59.383Z,39.79
2019-03-15T07:30:00.564Z,39.77
2019-03-15T07:30:59.351Z,39.75
2019-03-15T07:31:59.769Z,39.78
2019-03-15T07:32:59.655Z,39.76
2019-03-15T07:33:59.362Z,39.79
2019-03-15T07:34:59.404Z,39.83
2019-03-15T07:35:59.898Z,39.74
2019-03-15T07:36:59.375Z,39.81
2019-03-15T07:37:59.389Z,39.81
2019-03-15T07:38:59.291Z,39.83
2019-03-15T07:39:59.404Z,39.74
2019-03-15T07:40:59.402Z,39.73
2019-03-15T07:41:59.355Z,39.79
2019-03-15T07:43:05.164Z,39.78
2019-03-15T07:43:59.512Z,39.79
2019-03-15T07:44:59.339Z,39.76
2019-03-15T07:45:59.305Z,39.75
2019-03-15T07:46:59.416Z,39.76
2019-03-15T07:47:59.267Z,39.78
2019-03-15T07:48:59.325Z,39.82
2019-03-15T07:49:59.514Z,39.84
2019-03-15T07:50:59.320Z,39.89
2019-03-15T07:51:59.456Z,39.81
2019-03-15T07:52:59.187Z,39.78
2019-03-15T07:53:59.603Z,39.78
2019-03-15T07:54:59.507Z,39.79
2019-03-15T07:55:59.218Z,39.76
2019-03-15T07:56:59.351Z,39.79
2019-03-15T07:57:59.371Z,39.72
2019-03-15T07:58:59.677Z,39.76
2019-03-15T07:59:59.597Z,39.78
2019-03-15T08:00:59.542Z,39.79
2019-03-15T08:01:59.261Z,39.8
2019-03-15T08:02:59.316Z,39.79
2019-03-15T08:03:59.216Z,39.77
2019-03-15T08:04:59.267Z,39.79
2019-03-15T08:05:59.373Z,39.81
2019-03-15T08:06:59.279Z,39.75
2019-03-15T08:07:59.380Z,39.78
2019-03-15T08:08:59.382Z,39.73
2019-03-15T08:09:59.290Z,39.73
2019-03-15T08:10:59.530Z,39.72
2019-03-15T08:11:59.386Z,39.75
2019-03-15T08:12:59.279Z,39.67
2019-03-15T08:13:59.263Z,39.7
2019-03-15T08:14:59.125Z,39.76
2019-03-15T08:15:59.870Z,39.72
2019-03-15T08:16:59.476Z,39.73
2019-03-15T08:17:59.306Z,39.73
2019-03-15T08:18:59.338Z,39.71
2019-03-15T08:19:59.533Z,39.68
2019-03-15T08:20:59.231Z,39.74
2019-03-15T08:21:59.489Z,39.72
2019-03-15T08:22:59.217Z,39.69
2019-03-15T08:23:59.339Z,39.71
2019-03-15T08:24:59.372Z,39.74
2019-03-15T08:25:59.182Z,39.7
2019-03-15T08:26:59.273Z,39.7
2019-03-15T08:27:59.411Z,39.69
2019-03-15T08:28:59.338Z,39.72
2019-03-15T08:29:59.270Z,39.73
2019-03-15T08:30:59.579Z,39.66
2019-03-15T08:31:59.406Z,39.7
2019-03-15T08:33:10.908Z,39.66
2019-03-15T08:33:59.518Z,39.67
2019-03-15T08:34:59.331Z,39.73
2019-03-15T08:35:59.492Z,39.71
2019-03-15T08:36:59.537Z,39.67
2019-03-15T08:37:59.380Z,39.7
2019-03-15T08:38:59.876Z,39.68
2019-03-15T08:39:59.237Z,39.69
2019-03-15T08:40:59.390Z,39.66
2019-03-15T08:41:59.463Z,39.72
2019-03-15T08:42:59.272Z,39.68
2019-03-15T08:43:59.424Z,39.67
2019-03-15T08:44:59.550Z,39.64
2019-03-15T08:46:03.213Z,39.72
2019-03-15T08:46:59.510Z,39.63
2019-03-15T08:47:59.266Z,39.71
2019-03-15T08:48:59.434Z,39.62
2019-03-15T08:49:59.479Z,39.7
2019-03-15T08:50:59.538Z,39.63
2019-03-15T08:52:04.366Z,39.64
2019-03-15T08:52:59.470Z,39.71
2019-03-15T08:53:59.338Z,39.89
2019-03-15T08:55:05.907Z,39.97
2019-03-15T08:55:59.263Z,40.11
2019-03-15T08:56:59.332Z,40.2
2019-03-15T08:58:15.879Z,40.24
2019-03-15T08:58:59.426Z,40.34
2019-03-15T08:59:59.292Z,40.16
2019-03-15T09:00:59.767Z,40.04
2019-03-15T09:01:59.161Z,40.17
2019-03-15T09:02:59.347Z,39.96
2019-03-15T09:03:59.384Z,40.51
2019-03-15T09:04:59.216Z,40.26
2019-03-15T09:05:59.368Z,40.24
2019-03-15T09:06:59.170Z,40.19
2019-03-15T09:07:59.250Z,40.19
2019-03-15T09:08:59.365Z,40.17
2019-03-15T09:10:03.845Z,40.25
2019-03-15T09:10:59.260Z,40
2019-03-15T09:11:59.418Z,40.11
2019-03-15T09:12:59.220Z,40.05
2019-03-15T09:13:59.314Z,40.07
2019-03-15T09:14:59.435Z,40.42
2019-03-15T09:15:59.235Z,40.28
2019-03-15T09:16:59.327Z,40.06
2019-03-15T09:17:59.144Z,40.4
2019-03-15T09:18:59.264Z,40.16
2019-03-15T09:19:59.317Z,40
2019-03-15T09:20:59.452Z,40.26
2019-03-15T09:22:00.879Z,40.29
2019-03-15T09:22:59.459Z,40.22
2019-03-15T09:23:59.477Z,40.14
2019-03-15T09:24:59.335Z,40.08
2019-03-15T09:25:59.350Z,40.14
2019-03-15T09:26:59.306Z,40.54
2019-03-15T09:27:59.381Z,40.13
2019-03-15T09:28:59.217Z,39.91
2019-03-15T09:29:59.323Z,39.94
2019-03-15T09:30:59.322Z,39.84
2019-03-15T09:32:09.010Z,39.79
2019-03-15T09:32:59.327Z,39.88
2019-03-15T09:33:59.321Z,40.05
2019-03-15T09:34:59.341Z,40.68
2019-03-15T09:35:59.214Z,39.93
2019-03-15T09:36:59.382Z,39.79
2019-03-15T09:37:59.188Z,39.67
2019-03-15T09:38:59.389Z,40.5
2019-03-15T09:39:59.418Z,40.44
2019-03-15T09:40:59.300Z,40.55
2019-03-15T09:41:59.318Z,40.41
2019-03-15T09:43:00.207Z,40.34
2019-03-15T09:43:59.250Z,39.97
2019-03-15T09:45:00.633Z,40.62
2019-03-15T09:45:59.270Z,40.39
2019-03-15T09:47:02.758Z,40.29
2019-03-15T09:47:59.458Z,39.98
2019-03-15T09:49:00.039Z,40
2019-03-15T09:49:59.303Z,40.44
2019-03-15T09:50:59.388Z,41.04
2019-03-15T09:51:59.165Z,40.96
2019-03-15T09:52:59.527Z,40.67
2019-03-15T09:53:59.160Z,40.45
2019-03-15T09:54:59.219Z,40.4
2019-03-15T09:55:59.483Z,40.85
2019-03-15T09:56:59.172Z,41.36
2019-03-15T09:57:59.380Z,41.12
2019-03-15T09:58:59.310Z,40.8
2019-03-15T09:59:59.289Z,40.81
2019-03-15T10:01:00.527Z,40.27
2019-03-15T10:01:59.325Z,40.29
2019-03-15T10:02:59.463Z,40.34
2019-03-15T10:03:59.262Z,40.83
2019-03-15T10:05:11.601Z,40.26
2019-03-15T10:05:59.239Z,40.42
2019-03-15T10:06:59.542Z,40.26
2019-03-15T10:07:59.379Z,40.3
2019-03-15T10:08:59.146Z,40.21
2019-03-15T10:10:14.060Z,40.19
2019-03-15T10:10:59.512Z,40.33
2019-03-15T10:11:59.166Z,40.37
2019-03-15T10:13:06.498Z,40.52
2019-03-15T10:14:02.414Z,40.58
2019-03-15T10:14:59.233Z,40.5
2019-03-15T10:15:59.203Z,40.5
2019-03-15T10:16:59.362Z,40.18
2019-03-15T10:17:59.140Z,40.7
2019-03-15T10:18:59.279Z,40.54
2019-03-15T10:19:59.410Z,40.28
2019-03-15T10:20:59.481Z,40.24
2019-03-15T10:21:59.245Z,40.26
2019-03-15T10:23:06.515Z,40.28
2019-03-15T10:23:59.222Z,40.43
2019-03-15T10:24:59.384Z,40.42
2019-03-15T10:25:59.224Z,40.55
2019-03-15T10:26:59.501Z,40.63
2019-03-15T10:27:59.428Z,40.46
2019-03-15T10:28:59.135Z,40.5
2019-03-15T10:29:59.310Z,40.5
2019-03-15T10:30:59.332Z,40.44
2019-03-15T10:31:59.324Z,40.38
2019-03-15T10:32:59.333Z,40.42
2019-03-15T10:33:59.184Z,40.24
2019-03-15T10:34:59.151Z,40.4
2019-03-15T10:35:59.352Z,40.19
2019-03-15T10:36:59.189Z,40.36
2019-03-15T10:37:59.349Z,40.36
2019-03-15T10:38:59.365Z,40.25
2019-03-15T10:39:59.224Z,40.35
2019-03-15T10:41:01.558Z,40.27
2019-03-15T10:41:59.331Z,40.55
2019-03-15T10:42:59.224Z,40.24
2019-03-15T10:43:59.278Z,40.03
2019-03-15T10:44:59.673Z,40.21
2019-03-15T10:45:59.205Z,40.44
2019-03-15T10:46:59.471Z,40.18
2019-03-15T10:47:59.134Z,40.41
2019-03-15T10:48:59.306Z,40.24
2019-03-15T10:49:59.465Z,40.17
2019-03-15T10:51:00.072Z,40.04
2019-03-15T10:51:59.345Z,40.05
2019-03-15T10:52:59.371Z,40.02
2019-03-15T10:53:59.174Z,39.96
2019-03-15T10:54:59.396Z,40.03
2019-03-15T10:56:00.807Z,40.07
2019-03-15T10:56:59.301Z,40.2
2019-03-15T10:57:59.368Z,39.01
2019-03-15T10:58:59.205Z,39.85
2019-03-15T10:59:59.334Z,39.8
2019-03-15T11:00:59.353Z,39.83
2019-03-15T11:01:59.172Z,39.8
2019-03-15T11:02:59.325Z,39.84
2019-03-15T11:03:59.409Z,40.19
2019-03-15T11:04:59.208Z,40.01
2019-03-15T11:05:59.304Z,40.1
2019-03-15T11:06:59.099Z,40.62
2019-03-15T11:07:59.302Z,41.81
2019-03-15T11:08:59.243Z,40.76
2019-03-15T11:09:59.238Z,40.44
2019-03-15T11:10:59.216Z,40.31
2019-03-15T11:11:59.253Z,40.32
2019-03-15T11:12:59.223Z,40.32
2019-03-15T11:13:59.217Z,40.25
2019-03-15T11:14:59.356Z,40.18
2019-03-15T11:15:59.140Z,40.11
2019-03-15T11:16:59.224Z,40.15
2019-03-15T11:17:59.232Z,40.2
2019-03-15T11:18:59.113Z,40.24
2019-03-15T11:19:59.331Z,40.09
2019-03-15T11:20:59.757Z,40.19
2019-03-15T11:21:59.279Z,40.53
2019-03-15T11:22:59.450Z,40.28
2019-03-15T11:23:59.090Z,40.21
2019-03-15T11:24:59.218Z,40.21
2019-03-15T11:26:14.048Z,40.18
2019-03-15T11:26:59.107Z,40.32
2019-03-15T11:27:59.221Z,40.3
2019-03-15T11:28:59.323Z,40.46
2019-03-15T11:29:59.168Z,40.33
2019-03-15T11:31:00.978Z,40.35
2019-03-15T11:31:59.329Z,40.36
2019-03-15T11:32:59.349Z,40.25
2019-03-15T11:33:59.425Z,40.5
2019-03-15T11:34:59.357Z,40.24
2019-03-15T11:35:59.271Z,40.22
2019-03-15T11:36:59.264Z,40.16
2019-03-15T11:37:59.120Z,40.15
2019-03-15T11:38:59.290Z,40.13
2019-03-15T11:39:59.304Z,40.18
2019-03-15T11:40:59.223Z,40.14
2019-03-15T11:41:59.383Z,39.93
2019-03-15T11:42:59.420Z,39.83
2019-03-15T11:43:59.249Z,39.85
2019-03-15T11:44:59.259Z,39.78
2019-03-15T11:45:59.310Z,39.74
2019-03-15T11:46:59.354Z,39.69
2019-03-15T11:48:04.677Z,39.63
2019-03-15T11:48:59.178Z,39.67
2019-03-15T11:49:59.195Z,39.59
2019-03-15T11:50:59.370Z,39.58
2019-03-15T11:51:59.203Z,39.53
2019-03-15T11:52:59.195Z,39.95
2019-03-15T11:53:59.416Z,40.03
2019-03-15T11:54:59.153Z,39.85
2019-03-15T11:55:59.212Z,39.86
2019-03-15T11:56:59.392Z,39.96
2019-03-15T11:57:59.504Z,39.83
2019-03-15T11:58:59.368Z,39.8
2019-03-15T11:59:59.115Z,39.64
2019-03-15T12:00:59.210Z,39.51
2019-03-15T12:02:04.550Z,39.49
2019-03-15T12:02:59.087Z,39.51
2019-03-15T12:03:59.237Z,39.48
2019-03-15T12:04:59.439Z,39.47
2019-03-15T12:05:59.182Z,39.46
2019-03-15T12:06:59.354Z,39.42
2019-03-15T12:07:59.167Z,39.4
2019-03-15T12:08:59.265Z,39.45
2019-03-15T12:09:59.278Z,39.42
2019-03-15T12:10:59.161Z,39.43
2019-03-15T12:11:59.302Z,39.42
2019-03-15T12:12:59.329Z,39.37
2019-03-15T12:13:59.143Z,39.38
2019-03-15T12:14:59.280Z,39.4
2019-03-15T12:15:59.328Z,39.5
2019-03-15T12:16:59.106Z,39.54
2019-03-15T12:17:59.202Z,39.54
2019-03-15T12:18:59.573Z,39.54
2019-03-15T12:19:59.208Z,39.73
2019-03-15T12:20:59.224Z,39.7
2019-03-15T12:22:06.810Z,39.63
2019-03-15T12:22:59.169Z,39.64
2019-03-15T12:23:59.357Z,39.68
2019-03-15T12:24:59.302Z,39.67
2019-03-15T12:25:59.219Z,39.7
2019-03-15T12:26:59.263Z,39.76
2019-03-15T12:27:59.039Z,39.73
2019-03-15T12:28:59.258Z,39.7
2019-03-15T12:29:59.263Z,39.71
2019-03-15T12:30:59.448Z,39.7
2019-03-15T12:31:59.204Z,39.7
2019-03-15T12:32:59.252Z,39.66
2019-03-15T12:33:59.185Z,39.68
2019-03-15T12:34:59.163Z,39.7
2019-03-15T12:35:59.459Z,39.78
2019-03-15T12:36:59.079Z,39.72
2019-03-15T12:37:59.298Z,39.73
2019-03-15T12:38:59.249Z,39.67
2019-03-15T12:39:59.230Z,39.7
2019-03-15T12:40:59.394Z,39.67
2019-03-15T12:41:59.134Z,39.65
2019-03-15T12:42:59.132Z,39.71
2019-03-15T12:43:59.228Z,39.71
2019-03-15T12:44:59.146Z,39.72
2019-03-15T12:45:59.146Z,39.74
2019-03-15T12:46:59.481Z,39.8
2019-03-15T12:47:59.111Z,39.8
2019-03-15T12:48:59.167Z,39.68
2019-03-15T12:49:59.277Z,39.71
2019-03-15T12:50:59.180Z,39.75
2019-03-15T12:51:59.494Z,39.78
2019-03-15T12:52:59.041Z,39.77
2019-03-15T12:53:59.237Z,39.74
2019-03-15T12:54:59.210Z,39.75
2019-03-15T12:55:59.215Z,39.74